Time;durP1;ratioP1;P1;durP2;ratioP2;P2;SDS_P1;SDS_P2;PMS_P1;PMS_P2;Temp;Humidity;BMP_temperature;BMP_pressure;BME280_temperature;BME280_humidity;BME280_pressure;Samples;Min_cycle;Max_cycle;Signal;HPM_P1;HPM_P2
2021/09/20 00:00:34;;;;;;;11.18;6.95;;;13.00;91.90;;;;;;4976962;28;20046;-56
2021/09/20 00:02:59;;;;;;;9.60;6.18;;;13.00;91.70;;;;;;4994863;28;20182;-54
2021/09/20 00:05:25;;;;;;;10.23;6.30;;;13.10;91.30;;;;;;4993952;28;20125;-55
2021/09/20 00:07:51;;;;;;;11.52;5.97;;;13.10;91.50;;;;;;4994267;28;20030;-55
2021/09/20 00:10:17;;;;;;;12.13;6.40;;;13.00;91.70;;;;;;4994645;28;20045;-55
2021/09/20 00:12:43;;;;;;;9.00;6.13;;;13.00;91.70;;;;;;4961874;28;20128;-55
2021/09/20 00:15:12;;;;;;;9.27;6.00;;;13.00;91.60;;;;;;4994762;28;20069;-55
2021/09/20 00:17:38;;;;;;;8.50;5.95;;;13.00;91.60;;;;;;4992676;28;20093;-55
2021/09/20 00:20:07;;;;;;;11.68;7.00;;;13.00;91.50;;;;;;4994404;28;20525;-55
2021/09/20 00:22:33;;;;;;;10.43;6.50;;;13.00;91.60;;;;;;4969153;28;20031;-54
2021/09/20 00:24:59;;;;;;;10.95;6.25;;;12.90;91.80;;;;;;4992853;28;20097;-53
2021/09/20 00:27:24;;;;;;;10.75;6.32;;;12.90;91.60;;;;;;4985558;28;20070;-55
2021/09/20 00:29:52;;;;;;;11.05;6.10;;;12.90;91.80;;;;;;4982974;28;20053;-55
2021/09/20 00:32:18;;;;;;;9.93;6.13;;;12.80;91.50;;;;;;4991735;28;20097;-54
2021/09/20 00:34:44;;;;;;;9.82;5.85;;;12.80;91.60;;;;;;4972704;28;20125;-55
2021/09/20 00:37:10;;;;;;;10.57;6.20;;;12.70;91.80;;;;;;4993818;28;20113;-51
2021/09/20 00:39:36;;;;;;;12.55;5.80;;;12.70;91.80;;;;;;4993498;28;20029;-53
2021/09/20 00:42:02;;;;;;;12.00;6.18;;;12.70;91.80;;;;;;4980044;28;20427;-54
2021/09/20 00:44:27;;;;;;;9.40;5.63;;;12.70;91.70;;;;;;4993714;28;20475;-51
2021/09/20 00:46:53;;;;;;;11.00;5.97;;;12.60;91.60;;;;;;4989961;28;20192;-51
2021/09/20 00:49:22;;;;;;;12.15;6.38;;;12.50;91.90;;;;;;4983118;28;20042;-51
2021/09/20 00:51:48;;;;;;;10.85;6.53;;;12.40;92.10;;;;;;4960374;28;20515;-49
2021/09/20 00:54:13;;;;;;;9.40;5.68;;;12.40;92.00;;;;;;4974529;28;20407;-51
2021/09/20 00:56:39;;;;;;;11.38;6.28;;;12.40;92.00;;;;;;4976320;28;20035;-52
2021/09/20 00:59:06;;;;;;;9.15;6.20;;;12.30;92.40;;;;;;4994331;28;20080;-53
2021/09/20 01:01:33;;;;;;;11.60;6.50;;;12.20;92.40;;;;;;4976213;28;20053;-49
2021/09/20 01:03:59;;;;;;;10.77;6.60;;;12.20;92.60;;;;;;4976246;28;20251;-54
2021/09/20 01:06:25;;;;;;;10.90;6.38;;;12.20;92.70;;;;;;4945015;28;20038;-50
2021/09/20 01:08:51;;;;;;;13.23;6.53;;;12.20;92.90;;;;;;4992933;28;20068;-53
2021/09/20 01:11:17;;;;;;;11.32;6.68;;;12.10;92.80;;;;;;4975984;28;20042;-52
2021/09/20 01:13:43;;;;;;;10.93;6.35;;;12.10;92.90;;;;;;4959585;28;20046;-51
2021/09/20 01:16:09;;;;;;;10.90;6.65;;;12.00;93.10;;;;;;4992863;28;20041;-51
2021/09/20 01:18:35;;;;;;;11.05;6.57;;;12.10;93.00;;;;;;4992826;28;20579;-50
2021/09/20 01:21:00;;;;;;;9.13;6.45;;;12.00;92.90;;;;;;4993752;28;20045;-51
2021/09/20 01:23:26;;;;;;;10.18;6.47;;;11.90;93.00;;;;;;4975409;28;20038;-50
2021/09/20 01:25:52;;;;;;;12.05;6.60;;;11.90;93.20;;;;;;4993066;28;20080;-53
2021/09/20 01:28:17;;;;;;;12.60;6.80;;;11.90;93.40;;;;;;4992426;28;20031;-52
2021/09/20 01:30:43;;;;;;;10.05;5.95;;;11.80;93.50;;;;;;4992599;28;20165;-50
2021/09/20 01:33:09;;;;;;;12.63;6.60;;;11.80;93.40;;;;;;4993020;28;20081;-51
2021/09/20 01:35:35;;;;;;;12.68;6.75;;;11.90;93.10;;;;;;4993410;28;20113;-53
2021/09/20 01:38:00;;;;;;;10.70;6.43;;;11.80;93.30;;;;;;4992941;28;20117;-50
2021/09/20 01:40:27;;;;;;;12.13;6.97;;;11.80;93.40;;;;;;4969843;28;20051;-52
2021/09/20 01:42:54;;;;;;;12.93;7.60;;;11.70;93.60;;;;;;4959281;28;20739;-51
2021/09/20 01:45:19;;;;;;;12.05;6.78;;;11.60;93.50;;;;;;4992725;28;20070;-52
2021/09/20 01:47:46;;;;;;;13.02;7.40;;;11.50;93.90;;;;;;4969366;28;20149;-52
2021/09/20 01:50:13;;;;;;;12.35;6.88;;;11.60;94.00;;;;;;4974175;28;20042;-54
2021/09/20 01:52:40;;;;;;;11.13;7.03;;;11.50;94.00;;;;;;4992223;28;20042;-50
2021/09/20 01:55:07;;;;;;;12.82;7.07;;;11.50;94.20;;;;;;4993094;28;20061;-53
2021/09/20 01:57:33;;;;;;;11.15;7.05;;;11.40;94.10;;;;;;4988245;28;20031;-53
2021/09/20 01:59:59;;;;;;;12.63;7.20;;;11.30;94.30;;;;;;4974312;28;20050;-50
2021/09/20 02:02:24;;;;;;;12.98;6.88;;;11.30;94.40;;;;;;4992693;28;20034;-53
2021/09/20 02:04:50;;;;;;;11.68;8.23;;;11.30;94.50;;;;;;4993244;28;20109;-53
2021/09/20 02:07:15;;;;;;;12.27;7.10;;;11.30;94.50;;;;;;4990504;28;20043;-53
2021/09/20 02:09:41;;;;;;;12.50;7.57;;;11.20;94.60;;;;;;4975188;28;20049;-53
2021/09/20 02:12:06;;;;;;;14.27;7.38;;;11.20;94.50;;;;;;4992041;28;20042;-54
2021/09/20 02:14:32;;;;;;;13.60;7.40;;;11.20;94.60;;;;;;4990509;28;20201;-54
2021/09/20 02:16:58;;;;;;;14.48;7.72;;;11.20;94.80;;;;;;4990974;28;20100;-53
2021/09/20 02:19:24;;;;;;;14.82;7.45;;;11.10;94.70;;;;;;4958949;28;20395;-54
2021/09/20 02:21:50;;;;;;;11.25;7.55;;;11.10;95.10;;;;;;4974260;28;20046;-53
2021/09/20 02:24:15;;;;;;;11.48;7.30;;;11.10;95.00;;;;;;4991810;28;20046;-53
2021/09/20 02:26:41;;;;;;;13.00;8.30;;;11.10;95.00;;;;;;4991808;28;20519;-53
2021/09/20 02:29:06;;;;;;;12.15;7.65;;;11.10;94.90;;;;;;4991472;28;20038;-52
2021/09/20 02:31:32;;;;;;;13.20;8.00;;;11.00;95.00;;;;;;4992732;28;20369;-53
2021/09/20 02:33:59;;;;;;;13.90;7.75;;;11.10;95.10;;;;;;4974782;28;20403;-52
2021/09/20 02:36:24;;;;;;;14.07;7.72;;;11.00;95.00;;;;;;4991554;28;20034;-56
2021/09/20 02:38:51;;;;;;;12.80;7.63;;;11.00;95.30;;;;;;4992307;28;20038;-50
2021/09/20 02:41:17;;;;;;;14.43;7.35;;;10.90;95.10;;;;;;4992623;28;20053;-52
2021/09/20 02:43:43;;;;;;;13.40;8.13;;;10.80;95.10;;;;;;4990996;28;20042;-52
2021/09/20 02:46:09;;;;;;;14.77;8.02;;;10.80;95.30;;;;;;4992060;28;20038;-54
2021/09/20 02:48:35;;;;;;;15.13;8.80;;;10.80;95.40;;;;;;4989636;28;20084;-54
2021/09/20 02:51:01;;;;;;;13.68;7.97;;;10.70;95.40;;;;;;4979482;28;20042;-52
2021/09/20 02:53:27;;;;;;;15.40;8.82;;;10.70;95.60;;;;;;4992282;28;20027;-53
2021/09/20 02:55:53;;;;;;;12.05;7.75;;;10.70;95.50;;;;;;4989110;28;20049;-52
2021/09/20 02:58:18;;;;;;;13.40;8.55;;;10.70;95.40;;;;;;4991405;28;20037;-53
2021/09/20 03:00:44;;;;;;;14.55;7.63;;;10.70;95.70;;;;;;4992501;28;20041;-50
2021/09/20 03:03:10;;;;;;;17.17;8.70;;;10.70;95.70;;;;;;4991445;28;20061;-51
2021/09/20 03:05:36;;;;;;;17.35;9.25;;;10.60;95.40;;;;;;4991417;28;20505;-53
2021/09/20 03:08:02;;;;;;;13.13;8.13;;;10.60;95.70;;;;;;4988204;28;20041;-51
2021/09/20 03:10:28;;;;;;;14.38;8.43;;;10.60;95.90;;;;;;4966821;28;20042;-54
2021/09/20 03:12:54;;;;;;;14.48;8.75;;;10.60;95.70;;;;;;4987409;28;20034;-51
2021/09/20 03:15:21;;;;;;;15.43;9.20;;;10.60;95.70;;;;;;4983713;28;20122;-54
2021/09/20 03:17:48;;;;;;;13.88;8.60;;;10.50;95.90;;;;;;4937381;28;20514;-53
2021/09/20 03:20:15;;;;;;;13.48;8.30;;;10.50;95.90;;;;;;4987155;28;20089;-54
2021/09/20 03:22:41;;;;;;;14.77;9.32;;;10.50;96.10;;;;;;4985778;28;20074;-54
2021/09/20 03:25:08;;;;;;;13.75;8.85;;;10.40;96.00;;;;;;4919696;28;20501;-54
2021/09/20 03:27:34;;;;;;;16.60;8.63;;;10.30;96.00;;;;;;4981697;28;20216;-54
2021/09/20 03:29:59;;;;;;;16.42;8.80;;;10.30;96.20;;;;;;4974211;28;20034;-53
2021/09/20 03:32:25;;;;;;;15.27;9.20;;;10.30;96.50;;;;;;4990329;28;20034;-53
2021/09/20 03:34:50;;;;;;;18.60;9.25;;;10.30;96.40;;;;;;4984863;28;20474;-54
2021/09/20 03:37:16;;;;;;;15.80;8.90;;;10.20;96.50;;;;;;4965168;28;20380;-53
2021/09/20 03:39:42;;;;;;;15.48;8.60;;;10.20;96.70;;;;;;4958830;28;20053;-52
2021/09/20 03:42:08;;;;;;;14.25;9.45;;;10.20;96.60;;;;;;4973126;28;20129;-52
2021/09/20 03:44:34;;;;;;;16.42;8.90;;;10.20;96.60;;;;;;4988850;28;20047;-51
2021/09/20 03:47:00;;;;;;;14.48;9.43;;;10.20;97.00;;;;;;4987402;28;20122;-51
2021/09/20 03:49:25;;;;;;;16.58;8.88;;;10.20;96.80;;;;;;4983697;28;20450;-52
2021/09/20 03:51:52;;;;;;;17.08;9.23;;;10.10;96.80;;;;;;4991466;28;20585;-54
2021/09/20 03:54:18;;;;;;;14.27;9.07;;;10.20;96.80;;;;;;4951186;28;20037;-50
2021/09/20 03:56:43;;;;;;;14.48;8.55;;;10.20;96.80;;;;;;4989032;28;20042;-51
2021/09/20 03:59:10;;;;;;;16.35;9.85;;;10.10;97.00;;;;;;4991683;28;20038;-51
2021/09/20 04:01:35;;;;;;;14.95;9.02;;;10.10;96.90;;;;;;4992428;28;20042;-51
2021/09/20 04:04:01;;;;;;;15.30;9.25;;;10.10;97.00;;;;;;4989885;28;20038;-53
2021/09/20 04:06:27;;;;;;;16.73;9.60;;;10.10;96.90;;;;;;4990744;28;20066;-53
2021/09/20 04:08:54;;;;;;;21.02;9.82;;;10.10;97.10;;;;;;4990216;28;20043;-51
2021/09/20 04:11:19;;;;;;;15.10;9.55;;;10.00;97.10;;;;;;4973063;28;20104;-50
2021/09/20 04:13:45;;;;;;;14.65;8.70;;;10.00;97.10;;;;;;4989293;28;20042;-52
2021/09/20 04:16:10;;;;;;;15.93;9.18;;;9.90;97.20;;;;;;4987150;28;20053;-51
2021/09/20 04:18:36;;;;;;;13.10;8.70;;;10.00;97.60;;;;;;4993698;28;20442;-50
2021/09/20 04:21:02;;;;;;;15.82;9.30;;;10.00;97.30;;;;;;4994588;28;20042;-54
2021/09/20 04:23:28;;;;;;;14.60;8.88;;;10.00;97.30;;;;;;4994149;28;20034;-54
2021/09/20 04:25:53;;;;;;;16.10;9.43;;;10.00;97.40;;;;;;4993701;28;20391;-53
2021/09/20 04:28:20;;;;;;;13.43;8.35;;;10.00;97.50;;;;;;4993625;28;20113;-50
2021/09/20 04:30:46;;;;;;;15.73;8.70;;;10.00;97.50;;;;;;4993750;28;20495;-52
2021/09/20 04:33:13;;;;;;;12.80;8.52;;;10.00;97.20;;;;;;4985607;28;20124;-52
2021/09/20 04:35:39;;;;;;;16.67;9.07;;;9.90;97.40;;;;;;4985636;28;20035;-52
2021/09/20 04:38:07;;;;;;;15.18;9.50;;;9.90;97.40;;;;;;4991236;28;20034;-50
2021/09/20 04:40:34;;;;;;;14.32;9.43;;;9.90;97.40;;;;;;4986698;28;20072;-50
2021/09/20 04:43:00;;;;;;;16.65;9.50;;;9.90;97.40;;;;;;4987639;28;20138;-52
2021/09/20 04:45:26;;;;;;;16.23;9.15;;;9.90;97.40;;;;;;4992921;28;20034;-51
2021/09/20 04:47:51;;;;;;;17.33;9.18;;;9.90;97.50;;;;;;4987075;28;20039;-51
2021/09/20 04:50:17;;;;;;;16.17;9.40;;;9.90;97.50;;;;;;4983240;28;20080;-50
2021/09/20 04:52:42;;;;;;;16.73;9.43;;;9.90;97.70;;;;;;4975619;28;20046;-51
2021/09/20 04:55:09;;;;;;;13.98;9.05;;;9.90;97.40;;;;;;4990878;28;20069;-52
2021/09/20 04:57:35;;;;;;;13.85;8.98;;;9.90;97.40;;;;;;4993195;28;20039;-54
2021/09/20 05:00:01;;;;;;;16.08;9.90;;;9.90;97.50;;;;;;4987443;28;20098;-52
2021/09/20 05:02:26;;;;;;;19.80;9.38;;;9.90;97.60;;;;;;4975493;28;20042;-50
2021/09/20 05:04:52;;;;;;;21.02;10.23;;;9.90;97.40;;;;;;4988184;28;20042;-50
2021/09/20 05:07:18;;;;;;;15.82;9.88;;;9.80;97.60;;;;;;4967932;28;20270;-53
2021/09/20 05:09:43;;;;;;;14.82;9.38;;;9.80;97.70;;;;;;4990813;28;20069;-50
2021/09/20 05:12:09;;;;;;;17.05;9.85;;;9.80;97.70;;;;;;4973200;28;20042;-50
2021/09/20 05:14:34;;;;;;;17.52;9.82;;;9.80;97.70;;;;;;4990988;28;20030;-52
2021/09/20 05:17:03;;;;;;;16.27;9.07;;;9.90;97.90;;;;;;4992569;28;20476;-51
2021/09/20 05:19:29;;;;;;;15.35;9.43;;;9.90;97.90;;;;;;4986865;28;20368;-48
2021/09/20 05:21:54;;;;;;;17.83;10.35;;;10.00;97.90;;;;;;4970211;28;20053;-52
2021/09/20 05:24:20;;;;;;;16.20;9.93;;;10.00;97.80;;;;;;4984025;28;20046;-52
2021/09/20 05:26:46;;;;;;;15.93;9.75;;;9.90;97.80;;;;;;4967299;28;20046;-49
2021/09/20 05:29:11;;;;;;;15.20;9.30;;;9.90;98.10;;;;;;4989151;28;20410;-49
2021/09/20 05:31:37;;;;;;;15.88;10.13;;;9.90;97.90;;;;;;4992242;28;20515;-51
2021/09/20 05:34:04;;;;;;;17.67;10.10;;;9.90;98.00;;;;;;4973584;28;20046;-50
2021/09/20 05:36:29;;;;;;;16.15;9.98;;;10.00;98.30;;;;;;4974693;28;20046;-52
2021/09/20 05:38:55;;;;;;;18.75;10.02;;;9.90;98.10;;;;;;4984506;28;20043;-54
2021/09/20 05:41:20;;;;;;;18.35;11.30;;;10.00;98.30;;;;;;4986678;28;20038;-52
2021/09/20 05:43:47;;;;;;;16.48;10.50;;;10.00;98.20;;;;;;4986506;28;20038;-51
2021/09/20 05:46:13;;;;;;;16.77;10.27;;;10.00;98.20;;;;;;4974398;28;20040;-53
2021/09/20 05:48:39;;;;;;;17.90;10.13;;;10.10;98.30;;;;;;4956192;28;20137;-52
2021/09/20 05:51:05;;;;;;;15.55;10.07;;;10.20;98.40;;;;;;4965889;28;20053;-50
2021/09/20 05:53:31;;;;;;;14.65;9.63;;;10.20;98.10;;;;;;4980475;28;20037;-51
2021/09/20 05:55:57;;;;;;;15.73;9.93;;;10.20;98.50;;;;;;4981705;28;20084;-54
2021/09/20 05:58:22;;;;;;;18.25;10.40;;;10.20;98.40;;;;;;4982238;28;20053;-52
2021/09/20 06:00:49;;;;;;;16.92;10.05;;;10.30;98.50;;;;;;4984819;28;20034;-52
2021/09/20 06:03:15;;;;;;;25.58;11.52;;;10.30;98.30;;;;;;4983868;28;20034;-53
2021/09/20 06:05:41;;;;;;;17.17;10.50;;;10.40;98.40;;;;;;4979614;28;20035;-53
2021/09/20 06:08:07;;;;;;;17.13;10.40;;;10.50;98.50;;;;;;4982623;28;20042;-51
2021/09/20 06:10:33;;;;;;;16.80;10.63;;;10.40;98.40;;;;;;4963754;28;20089;-50
2021/09/20 06:12:59;;;;;;;16.38;10.55;;;10.40;98.50;;;;;;4981932;28;20400;-50
2021/09/20 06:15:25;;;;;;;19.48;10.63;;;10.40;98.60;;;;;;4980486;28;20034;-54
2021/09/20 06:17:50;;;;;;;15.90;10.68;;;10.40;98.50;;;;;;4983637;28;20064;-51
2021/09/20 06:20:16;;;;;;;17.70;10.90;;;10.50;98.70;;;;;;4980745;28;20085;-53
2021/09/20 06:22:42;;;;;;;17.45;10.93;;;10.50;98.60;;;;;;4983849;28;20434;-55
2021/09/20 06:25:09;;;;;;;14.60;10.40;;;10.60;98.70;;;;;;4982360;28;20038;-53
2021/09/20 06:27:35;;;;;;;17.77;10.63;;;10.60;98.60;;;;;;4981130;28;20496;-55
2021/09/20 06:30:01;;;;;;;17.05;10.65;;;10.70;98.70;;;;;;4960142;28;20068;-54
2021/09/20 06:32:27;;;;;;;18.38;11.48;;;10.70;98.80;;;;;;4979492;28;20051;-54
2021/09/20 06:34:52;;;;;;;17.38;10.43;;;10.70;98.90;;;;;;4979887;28;20046;-54
2021/09/20 06:37:18;;;;;;;22.10;11.30;;;10.80;98.90;;;;;;4983450;28;20031;-55
2021/09/20 06:39:43;;;;;;;19.13;10.38;;;10.80;98.80;;;;;;4960656;28;20037;-56
2021/09/20 06:42:10;;;;;;;22.75;10.13;;;10.90;98.80;;;;;;4960148;28;20085;-55
2021/09/20 06:44:36;;;;;;;19.60;10.75;;;10.90;98.80;;;;;;4948144;28;20116;-55
2021/09/20 06:47:01;;;;;;;20.33;10.85;;;11.00;98.80;;;;;;4979555;28;20050;-55
2021/09/20 06:49:28;;;;;;;19.55;11.02;;;11.00;98.80;;;;;;4981394;28;20399;-55
2021/09/20 06:51:54;;;;;;;19.38;10.85;;;11.00;98.90;;;;;;4960198;28;20082;-55
2021/09/20 06:54:20;;;;;;;15.00;10.45;;;11.20;98.90;;;;;;4975842;28;20160;-56
2021/09/20 06:56:46;;;;;;;17.83;10.57;;;11.20;98.80;;;;;;4978167;28;20043;-56
2021/09/20 06:59:12;;;;;;;17.75;10.82;;;11.20;99.00;;;;;;4962955;28;20074;-54
2021/09/20 07:01:38;;;;;;;17.40;10.05;;;11.30;98.80;;;;;;4987950;28;20153;-54
2021/09/20 07:04:04;;;;;;;18.73;10.63;;;11.30;99.00;;;;;;4987557;28;20038;-54
2021/09/20 07:06:30;;;;;;;18.25;10.27;;;11.40;99.00;;;;;;4990938;28;20515;-54
2021/09/20 07:08:56;;;;;;;17.08;10.25;;;11.50;98.80;;;;;;4972178;28;20112;-54
2021/09/20 07:11:22;;;;;;;14.32;9.45;;;11.50;98.90;;;;;;4989028;28;20052;-54
2021/09/20 07:13:47;;;;;;;16.13;10.25;;;11.60;98.80;;;;;;4982680;28;20144;-54
2021/09/20 07:16:14;;;;;;;13.00;9.07;;;11.60;98.90;;;;;;4988897;28;20038;-54
2021/09/20 07:18:40;;;;;;;16.27;8.80;;;11.70;98.70;;;;;;4990781;28;20082;-54
2021/09/20 07:21:05;;;;;;;15.15;8.85;;;11.80;98.80;;;;;;4973345;28;20562;-55
2021/09/20 07:23:31;;;;;;;18.33;8.98;;;11.90;98.60;;;;;;4983380;28;20120;-54
2021/09/20 07:25:58;;;;;;;16.15;8.80;;;11.90;98.40;;;;;;4975201;28;20042;-53
2021/09/20 07:28:24;;;;;;;15.90;8.68;;;12.00;98.30;;;;;;4947437;28;20038;-55
2021/09/20 07:30:50;;;;;;;16.08;9.35;;;12.10;98.30;;;;;;4984839;28;20081;-55
2021/09/20 07:33:15;;;;;;;13.88;8.70;;;12.10;98.20;;;;;;4973506;28;20407;-54
2021/09/20 07:35:41;;;;;;;16.38;8.35;;;12.20;98.00;;;;;;4986604;28;20034;-54
2021/09/20 07:38:07;;;;;;;15.52;8.98;;;12.20;97.80;;;;;;4991476;28;20388;-54
2021/09/20 07:40:34;;;;;;;14.57;8.38;;;12.30;97.60;;;;;;4986834;28;20467;-54
2021/09/20 07:43:00;;;;;;;16.10;8.40;;;12.40;97.60;;;;;;4992486;28;20046;-54
2021/09/20 07:45:26;;;;;;;14.38;8.68;;;12.40;97.50;;;;;;4988690;28;20521;-53
2021/09/20 07:47:51;;;;;;;12.35;8.38;;;12.40;97.50;;;;;;4968875;28;20343;-54
2021/09/20 07:50:19;;;;;;;13.55;7.80;;;12.50;96.90;;;;;;4994375;28;20042;-52
2021/09/20 07:52:45;;;;;;;11.63;8.13;;;12.60;96.80;;;;;;4972087;28;20054;-52
2021/09/20 07:55:13;;;;;;;13.68;7.75;;;12.60;96.90;;;;;;4995955;28;20045;-51
2021/09/20 07:57:39;;;;;;;13.40;8.20;;;12.70;96.80;;;;;;4963968;28;20499;-54
2021/09/20 08:00:07;;;;;;;13.63;8.10;;;12.70;96.70;;;;;;4985401;28;20085;-54
2021/09/20 08:02:33;;;;;;;13.55;7.95;;;12.80;96.70;;;;;;4991592;28;20046;-54
2021/09/20 08:04:59;;;;;;;15.48;8.10;;;12.90;96.70;;;;;;4973527;28;20046;-53
2021/09/20 08:07:25;;;;;;;11.07;7.80;;;13.00;96.60;;;;;;4977070;28;20042;-51
2021/09/20 08:09:50;;;;;;;13.07;7.68;;;13.00;96.50;;;;;;4993583;28;20042;-54
2021/09/20 08:12:16;;;;;;;12.38;7.32;;;13.10;96.40;;;;;;4989010;28;20042;-52
2021/09/20 08:14:41;;;;;;;13.07;7.13;;;13.20;95.80;;;;;;4961514;28;20488;-51
2021/09/20 08:17:08;;;;;;;12.52;7.40;;;13.30;95.90;;;;;;4997079;28;20410;-51
2021/09/20 08:19:34;;;;;;;11.05;7.00;;;13.40;94.90;;;;;;4998577;28;20050;-52
2021/09/20 08:22:00;;;;;;;11.57;7.00;;;13.40;95.00;;;;;;4993803;28;20031;-55
2021/09/20 08:24:26;;;;;;;8.75;6.68;;;13.40;94.80;;;;;;4986701;28;20066;-54
2021/09/20 08:26:51;;;;;;;12.43;6.85;;;13.40;94.80;;;;;;4976485;28;20031;-55
2021/09/20 08:29:17;;;;;;;11.80;6.93;;;13.50;94.70;;;;;;4987227;28;20096;-54
2021/09/20 08:31:44;;;;;;;10.65;6.38;;;13.40;94.80;;;;;;4995354;28;20446;-54
2021/09/20 08:34:09;;;;;;;10.52;6.85;;;13.50;94.10;;;;;;4963606;28;20038;-54
2021/09/20 08:36:35;;;;;;;10.23;5.93;;;13.60;94.20;;;;;;4994550;28;20084;-54
2021/09/20 08:39:03;;;;;;;9.48;6.25;;;13.70;93.80;;;;;;4970378;28;20415;-55
2021/09/20 08:41:28;;;;;;;13.05;6.38;;;13.70;93.90;;;;;;4980711;28;20046;-54
2021/09/20 08:43:54;;;;;;;9.70;6.38;;;13.70;93.70;;;;;;4994788;28;20125;-54
2021/09/20 08:46:20;;;;;;;8.38;5.57;;;13.80;93.40;;;;;;4993921;28;20093;-54
2021/09/20 08:48:47;;;;;;;7.20;5.28;;;13.80;93.20;;;;;;4997874;28;20061;-55
2021/09/20 08:51:16;;;;;;;8.60;5.25;;;13.90;92.50;;;;;;4987365;28;20088;-53
2021/09/20 08:53:42;;;;;;;8.00;4.88;;;14.00;91.30;;;;;;4990269;28;20422;-54
2021/09/20 08:56:08;;;;;;;7.45;5.00;;;13.90;91.50;;;;;;4990109;28;20125;-52
2021/09/20 08:58:34;;;;;;;8.27;4.85;;;13.90;91.90;;;;;;4987171;28;20043;-54
2021/09/20 09:01:00;;;;;;;11.55;5.15;;;14.00;91.50;;;;;;4992754;28;20049;-51
2021/09/20 09:03:29;;;;;;;10.25;5.40;;;14.00;91.60;;;;;;4990850;28;20113;-54
2021/09/20 09:05:54;;;;;;;10.50;5.15;;;14.10;90.90;;;;;;4993808;28;20117;-52
2021/09/20 09:08:35;;;;;;;8.45;4.70;;;14.20;91.10;;;;;;4994097;28;20134;-55
2021/09/20 09:11:12;;;;;;;7.90;4.63;;;14.20;90.30;;;;;;4989232;28;20411;-51
2021/09/20 09:13:43;;;;;;;7.30;4.57;;;14.30;89.10;;;;;;4988242;28;20041;-53
2021/09/20 09:16:27;;;;;;;9.23;4.38;;;14.30;89.50;;;;;;4993496;28;20042;-50
2021/09/20 09:19:10;;;;;;;8.25;4.95;;;14.30;88.70;;;;;;4992740;28;20043;-53
2021/09/20 09:21:41;;;;;;;7.72;4.65;;;14.30;88.10;;;;;;4984150;28;20045;-55
2021/09/20 09:24:13;;;;;;;6.55;4.45;;;14.30;86.50;;;;;;4980681;28;20043;-55
2021/09/20 09:26:57;;;;;;;6.82;4.45;;;14.30;87.80;;;;;;4984302;28;20034;-55
2021/09/20 09:29:23;;;;;;;7.35;4.07;;;14.30;89.10;;;;;;4985210;28;20034;-53
2021/09/20 09:31:54;;;;;;;8.07;3.72;;;14.40;87.30;;;;;;4977220;28;20035;-54
2021/09/20 09:34:27;;;;;;;9.23;3.80;;;14.50;85.60;;;;;;4958570;28;20454;-54
2021/09/20 09:37:07;;;;;;;5.00;3.35;;;14.60;85.50;;;;;;4991579;28;20064;-55
2021/09/20 09:39:33;;;;;;;6.13;3.92;;;14.60;83.40;;;;;;4995836;28;20065;-55
2021/09/20 09:42:00;;;;;;;6.05;3.28;;;14.70;82.60;;;;;;4993026;28;20038;-55
2021/09/20 09:44:31;;;;;;;5.55;3.75;;;14.70;81.40;;;;;;4992268;28;20459;-55
2021/09/20 09:46:57;;;;;;;5.20;3.35;;;14.80;82.60;;;;;;4987209;28;20046;-55
2021/09/20 09:49:24;;;;;;;6.05;3.53;;;14.80;81.50;;;;;;4993017;28;20458;-55
2021/09/20 09:52:01;;;;;;;6.40;2.97;;;14.80;81.60;;;;;;4992303;28;20046;-55
2021/09/20 09:54:31;;;;;;;6.13;3.30;;;14.80;82.60;;;;;;4994083;28;20034;-55
2021/09/20 09:57:14;;;;;;;8.60;3.72;;;14.80;80.90;;;;;;4993341;28;20084;-54
2021/09/20 09:59:40;;;;;;;7.03;3.20;;;14.90;82.80;;;;;;4990833;28;20042;-54
2021/09/20 10:02:27;;;;;;;6.18;3.42;;;15.10;81.10;;;;;;4995514;28;20088;-55
2021/09/20 10:04:58;;;;;;;8.00;3.78;;;15.10;81.00;;;;;;4972221;28;20105;-53
2021/09/20 10:07:27;;;;;;;7.88;4.10;;;15.20;80.90;;;;;;4979720;28;20046;-55
2021/09/20 10:09:55;;;;;;;5.97;3.35;;;15.10;81.70;;;;;;4974951;28;20046;-53
2021/09/20 10:12:26;;;;;;;6.40;3.53;;;15.20;78.90;;;;;;4984972;28;20054;-55
2021/09/20 10:14:55;;;;;;;5.28;3.30;;;15.30;79.10;;;;;;4986718;28;20038;-54
2021/09/20 10:17:22;;;;;;;5.50;3.20;;;15.20;76.40;;;;;;4962176;28;20077;-54
2021/09/20 10:19:48;;;;;;;6.65;3.50;;;15.20;77.30;;;;;;4991385;28;20058;-55
2021/09/20 10:22:15;;;;;;;6.05;3.53;;;15.20;75.70;;;;;;4970740;28;20173;-55
2021/09/20 10:24:43;;;;;;;6.53;3.28;;;15.30;75.70;;;;;;4976575;28;20045;-54
2021/09/20 10:27:12;;;;;;;7.30;3.60;;;15.20;78.00;;;;;;4991830;28;20050;-55
2021/09/20 10:29:39;;;;;;;8.02;3.50;;;15.20;78.40;;;;;;4990476;28;20030;-55
2021/09/20 10:32:05;;;;;;;3.97;2.53;;;15.30;79.00;;;;;;4977103;28;20097;-55
2021/09/20 10:34:31;;;;;;;7.13;3.00;;;15.40;75.30;;;;;;4986629;28;20072;-53
2021/09/20 10:37:01;;;;;;;5.88;2.58;;;15.40;76.10;;;;;;4974533;28;20550;-55
2021/09/20 10:39:48;;;;;;;3.75;2.13;;;15.40;72.10;;;;;;4987727;28;20509;-55
2021/09/20 10:42:43;;;;;;;4.70;2.30;;;15.50;70.60;;;;;;4986337;28;20038;-54
2021/09/20 10:45:29;;;;;;;3.50;2.35;;;15.50;70.60;;;;;;4988215;28;20042;-55
2021/09/20 10:48:03;;;;;;;6.22;2.38;;;15.50;69.30;;;;;;4994274;28;20046;-55
2021/09/20 10:50:49;;;;;;;4.03;2.10;;;15.60;68.60;;;;;;4994532;28;20125;-54
2021/09/20 10:53:20;;;;;;;3.78;2.20;;;15.70;66.50;;;;;;4987132;28;20034;-54
2021/09/20 10:56:11;;;;;;;6.55;2.40;;;15.70;67.40;;;;;;4974682;28;20052;-55
2021/09/20 10:58:52;;;;;;;4.07;1.90;;;15.60;70.70;;;;;;4980173;28;20073;-55
2021/09/20 11:01:19;;;;;;;3.58;2.03;;;15.80;66.70;;;;;;4984308;28;20122;-55
2021/09/20 11:03:54;;;;;;;5.38;2.38;;;15.80;64.80;;;;;;4984953;28;20125;-55
2021/09/20 11:06:23;;;;;;;3.20;2.05;;;15.80;66.80;;;;;;4988729;28;20034;-55
2021/09/20 11:08:58;;;;;;;4.32;2.10;;;15.80;68.00;;;;;;4986100;28;20105;-55
2021/09/20 11:11:40;;;;;;;3.60;2.20;;;15.80;69.40;;;;;;4991277;28;20046;-55
2021/09/20 11:14:11;;;;;;;4.28;2.30;;;15.90;69.50;;;;;;4987611;28;20089;-55
2021/09/20 11:16:56;;;;;;;4.40;2.03;;;15.90;69.60;;;;;;4972079;28;20516;-53
2021/09/20 11:19:28;;;;;;;4.95;2.22;;;16.00;68.00;;;;;;4983521;28;20069;-55
2021/09/20 11:22:05;;;;;;;4.33;2.03;;;16.00;66.60;;;;;;4981113;28;20450;-55
2021/09/20 11:24:36;;;;;;;3.50;1.80;;;16.00;67.80;;;;;;4985198;28;20122;-53
2021/09/20 11:27:03;;;;;;;2.17;1.75;;;16.00;67.80;;;;;;4985377;28;20054;-56
2021/09/20 11:29:29;;;;;;;3.38;2.00;;;16.00;68.60;;;;;;4985386;28;20422;-54
2021/09/20 11:31:56;;;;;;;4.63;1.95;;;16.10;68.20;;;;;;4985576;28;20050;-55
2021/09/20 11:34:33;;;;;;;2.92;1.90;;;16.30;62.90;;;;;;4982820;28;20519;-53
2021/09/20 11:37:33;;;;;;;5.28;1.83;;;16.30;62.20;;;;;;4975398;28;20037;-54
2021/09/20 11:40:19;;;;;;;2.22;1.70;;;16.10;62.10;;;;;;4984620;28;20030;-55
2021/09/20 11:42:57;;;;;;;2.95;1.60;;;16.00;61.50;;;;;;4972810;28;20057;-54
2021/09/20 11:45:25;;;;;;;3.75;1.90;;;15.80;63.60;;;;;;4983206;28;20038;-51
2021/09/20 11:47:51;;;;;;;3.88;1.80;;;15.80;63.50;;;;;;4984449;28;20092;-55
2021/09/20 11:50:20;;;;;;;4.78;1.73;;;15.70;63.80;;;;;;4942582;28;20447;-53
2021/09/20 11:52:52;;;;;;;3.35;1.60;;;15.70;60.20;;;;;;4980588;28;20049;-53
2021/09/20 11:55:22;;;;;;;2.33;1.42;;;15.70;61.70;;;;;;4979780;28;20034;-52
2021/09/20 11:57:53;;;;;;;1.88;1.40;;;15.70;60.40;;;;;;4973978;28;20516;-53
2021/09/20 12:00:21;;;;;;;2.37;1.57;;;15.70;56.60;;;;;;4975522;28;20412;-52
2021/09/20 12:02:49;;;;;;;3.22;1.63;;;15.70;57.40;;;;;;4989829;28;20281;-52
2021/09/20 12:05:36;;;;;;;2.20;1.42;;;15.70;59.40;;;;;;4982703;28;20043;-52
2021/09/20 12:08:04;;;;;;;2.08;1.23;;;15.70;58.30;;;;;;4974417;28;20085;-57
2021/09/20 12:10:33;;;;;;;6.25;1.90;;;15.80;57.20;;;;;;4971439;28;20065;-52
2021/09/20 12:13:01;;;;;;;4.22;1.73;;;15.70;56.70;;;;;;4974966;28;20047;-54
2021/09/20 12:15:29;;;;;;;2.35;1.60;;;15.70;59.60;;;;;;4970125;28;20056;-50
2021/09/20 12:18:01;;;;;;;2.28;1.60;;;15.70;58.60;;;;;;4976666;28;20153;-52
2021/09/20 12:20:41;;;;;;;5.90;1.30;;;15.60;57.70;;;;;;4987480;28;20052;-52
2021/09/20 12:23:17;;;;;;;2.22;1.40;;;15.70;56.30;;;;;;4990563;28;20515;-50
2021/09/20 12:25:46;;;;;;;2.38;1.40;;;15.70;56.10;;;;;;4987152;28;20046;-55
2021/09/20 12:28:31;;;;;;;4.75;1.58;;;15.50;59.40;;;;;;4987007;28;20097;-51
2021/09/20 12:31:05;;;;;;;3.25;1.60;;;15.50;59.80;;;;;;4975285;28;20043;-53
2021/09/20 12:33:56;;;;;;;2.63;1.60;;;15.50;59.20;;;;;;4970633;28;20046;-53
2021/09/20 12:36:24;;;;;;;6.63;1.80;;;15.50;61.00;;;;;;4964496;28;20038;-51
2021/09/20 12:39:09;;;;;;;3.88;1.60;;;15.50;60.40;;;;;;4963468;28;20046;-51
2021/09/20 12:41:36;;;;;;;4.65;1.73;;;15.60;61.00;;;;;;4951442;28;20042;-53
2021/09/20 12:44:02;;;;;;;2.50;1.60;;;15.70;59.60;;;;;;4985794;28;20044;-53